< < Back
Terminal Aerodrome Forecast


Current Version              Previous Versions:   1  2  3  4  5  6  7  8  9  

Terminal Aerodrome Forecast

582
FTUS42 KCAE 262200 AAD
TAFAGS
TAF AMD
KAGS 262203Z 2622/2718 25007KT P6SM SCT080
     FM271400 29014G24KT P6SM SCT050=

Latest METAR

478
SAUS70 KWBC 270000 RRC
MTRAGS
METAR KAGS 262353Z 23005KT 10SM CLR 06/02 A3007 RMK AO2 SLP184 T00560022
10167 20056 51014


USA.gov is the U.S. government's official web portal to all federal, state and local government web resources and services.